Latest Weather Observations for Trangie

IDN60801

Issued at 10:32 pm EST Wednesday 26 September 2018 (issued every 10 minutes, with the page automatically refreshed every 10 minutes)

About weather observations | Map of weather stations | Latest weather observations for NSW | Other Formats
Station Details ID: 051049 Name: TRANGIE RESEARCH STATION AWS Lat: -31.99 Lon: 147.95 Height: 215.0 m
Data from the previous 72 hours. | See also: Recent months at Trangie
Date/Time
EST
Temp
°C
App
Temp
°C
Dew
Point
°C
Rel
Hum
%
Delta-T
°C
Wind Press
QNH
hPa
Press
MSL
hPa
Rain since
9am
mm
Dir  Spd
km/h
Gust
km/h
Spd
kts
Gust
kts
26/10:30pm 13.1 9.6 7.3 68 2.8 E 15 24 8 13 1019.9 1019.8 0.0
26/10:00pm 13.4 10.3 7.4 67 3.0 E 13 20 7 11 1019.9 1019.8 0.0
26/09:30pm 14.0 10.6 7.8 66 3.1 E 15 24 8 13 1019.9 1019.8 0.0
26/09:00pm 14.4 10.7 8.1 66 3.2 E 17 24 9 13 1019.8 1019.7 0.0
26/08:30pm 15.0 11.4 8.3 64 3.4 E 17 26 9 14 1019.5 1019.4 0.0
26/08:00pm 15.6 11.6 8.4 62 3.7 E 19 33 10 18 1019.3 1019.2 0.0
26/07:30pm 16.6 12.7 8.6 59 4.1 E 19 35 10 19 1018.7 1018.6 0.0
26/07:00pm 17.4 13.5 8.8 57 4.5 ESE 19 30 10 16 1018.0 1017.9 0.0
26/06:30pm 18.5 15.0 8.7 53 5.1 E 17 28 9 15 1017.3 1017.2 0.0
26/06:00pm 20.0 15.9 8.7 48 6.0 ESE 20 35 11 19 1017.0 1016.9 0.0
26/05:30pm 23.8 19.8 2.6 25 10.3 S 13 20 7 11 1016.5 1016.4 0.0
26/05:00pm 24.8 21.6 2.9 24 10.7 SW 9 17 5 9 1016.2 1016.1 0.0
26/04:30pm 24.9 20.4 2.4 23 10.9 WSW 15 22 8 12 1016.2 1016.1 0.0
26/04:00pm 24.4 20.3 2.5 24 10.6 SSW 13 20 7 11 1016.1 1016.0 0.0
26/03:30pm 23.6 19.4 1.9 24 10.3 SW 13 20 7 11 1016.2 1016.1 0.0
26/03:00pm 23.6 18.6 1.3 23 10.5 WSW 17 26 9 14 1016.3 1016.2 0.0
26/02:30pm 25.0 20.2 2.4 23 11.0 W 17 28 9 15 1016.6 1016.5 0.0
26/02:00pm 24.7 19.5 3.4 25 10.5 WSW 20 28 11 15 1016.9 1016.8 0.0
26/01:30pm 24.7 20.3 4.5 27 10.2 WSW 17 24 9 13 1017.3 1017.2 0.0
26/01:00pm 24.1 19.2 5.0 29 9.7 W 20 33 11 18 1017.5 1017.4 0.0
26/12:30pm 23.7 18.5 5.6 31 9.2 WNW 22 30 12 16 1018.0 1017.9 0.0
26/12:00pm 22.9 18.6 7.8 38 8.0 WNW 20 32 11 17 1018.5 1018.3 0.0
26/11:30am 23.0 19.9 9.0 41 7.6 NW 15 28 8 15 1019.1 1019.0 0.0
26/11:00am 22.3 18.6 9.5 44 6.9 NW 19 32 10 17 1019.5 1019.4 0.0
26/10:30am 22.0 19.6 10.2 47 6.5 NW 13 20 7 11 1020.0 1019.9 0.0
26/10:00am 20.2 16.4 9.2 49 5.9 NNW 19 26 10 14 1020.5 1020.4 0.0
26/09:30am 19.5 15.5 9.1 51 5.5 NNW 20 28 11 15 1020.5 1020.4 0.0
26/09:00am 18.5 14.5 9.0 54 5.0 N 20 33 11 18 1020.6 1020.5 0.0
26/08:30am 17.3 13.3 9.0 58 4.3 N 20 30 11 16 1020.7 1020.6 0.0
26/08:00am 15.0 11.6 7.5 61 3.7 NNE 15 22 8 12 1020.7 1020.6 0.0
26/07:30am 13.3 11.0 7.3 67 3.0 ESE 9 11 5 6 1020.9 1020.8 0.0
26/07:00am 11.4 9.5 7.5 77 1.9 SE 7 11 4 6 1020.9 1020.8 0.0
26/06:30am 9.0 8.2 6.3 83 1.3 CALM 0 0 0 0 1020.5 1020.4 0.0
26/06:00am 9.2 8.4 6.3 82 1.4 CALM 0 6 0 3 1020.3 1020.2 0.0
26/05:30am 9.6 7.6 6.3 80 1.5 ESE 6 7 3 4 1020.2 1020.1 0.0
26/05:00am 10.4 8.4 6.9 79 1.7 E 7 9 4 5 1020.1 1020.0 0.0
26/04:30am 10.7 8.3 6.8 77 1.9 E 9 13 5 7 1020.0 1019.9 0.0
26/04:00am 11.1 8.3 7.0 76 2.0 E 11 19 6 10 1020.2 1020.1 0.0
26/03:30am 10.8 8.3 6.6 75 2.0 E 9 15 5 8 1020.1 1020.0 0.0
26/03:00am 10.6 8.4 6.4 75 2.0 ESE 7 11 4 6 1020.3 1020.2 0.0
26/02:30am 10.4 8.1 5.8 73 2.1 E 7 11 4 6 1020.3 1020.2 0.0
26/02:00am 9.8 7.6 5.2 73 2.1 ESE 6 11 3 6 1020.7 1020.6 0.0
26/01:30am 11.3 8.8 6.4 72 2.3 ENE 9 13 5 7 1020.7 1020.6 0.0
26/01:00am 11.7 8.9 6.8 72 2.4 NE 11 15 6 8 1020.9 1020.8 0.0
26/12:30am 11.9 9.1 6.8 71 2.5 NE 11 13 6 7 1021.1 1021.0 0.0
26/12:00am 12.3 9.8 6.6 68 2.7 NNE 9 13 5 7 1021.4 1021.3 0.0
 
Date/Time
EST
Temp
°C
App
Temp
°C
Dew
Point
°C
Rel
Hum
%
Delta-T
°C
Wind Press
QNH
hPa
Press
MSL
hPa
Rain since
9am
mm
Dir  Spd
km/h
Gust
km/h
Spd
kts
Gust
kts
25/11:30pm 12.8 10.0 6.8 67 2.9 NE 11 17 6 9 1021.4 1021.3 0.0
25/11:00pm 13.1 10.7 6.9 66 3.0 NNE 9 13 5 7 1021.5 1021.4 0.0
25/10:30pm 14.0 10.9 7.1 63 3.4 NNE 13 19 7 10 1021.7 1021.6 0.0
25/10:00pm 14.5 11.5 7.5 63 3.5 NE 13 17 7 9 1021.7 1021.6 0.0
25/09:30pm 14.8 12.2 7.6 62 3.6 NE 11 15 6 8 1021.8 1021.7 0.0
25/09:00pm 15.0 12.6 7.1 59 3.9 NNE 9 15 5 8 1021.7 1021.6 0.0
25/08:30pm 15.6 13.2 6.9 56 4.3 NE 9 13 5 7 1021.6 1021.5 0.0
25/08:00pm 16.1 13.7 6.8 54 4.6 NE 9 15 5 8 1021.3 1021.2 0.0
25/07:30pm 16.7 14.1 6.2 50 5.2 NE 9 13 5 7 1021.2 1021.1 0.0
25/07:00pm 16.7 14.4 5.9 49 5.3 NE 7 9 4 5 1020.9 1020.8 0.0
25/06:30pm 17.9 15.7 6.4 47 5.7 NE 7 9 4 5 1020.7 1020.6 0.0
25/06:00pm 19.2 17.0 6.3 43 6.5 NE 7 11 4 6 1020.4 1020.3 0.0
25/05:30pm 20.4 17.9 6.4 40 7.1 NE 9 13 5 7 1020.3 1020.2 0.0
25/05:00pm 20.8 17.7 5.6 37 7.6 NE 11 15 6 8 1020.1 1020.0 0.0
25/04:30pm 21.5 18.8 5.8 36 7.9 NNE 9 17 5 9 1020.2 1020.1 0.0
25/04:00pm 21.4 18.7 5.7 36 7.9 NE 9 17 5 9 1020.3 1020.2 0.0
25/03:30pm 21.7 18.3 6.0 36 8.0 NE 13 20 7 11 1020.5 1020.4 0.0
25/03:00pm 22.0 18.4 6.7 37 7.9 NNE 15 24 8 13 1020.8 1020.7 0.0
25/02:30pm 22.2 18.6 6.8 37 8.0 NE 15 20 8 11 1021.2 1021.1 0.0
25/02:00pm 21.4 18.1 6.5 38 7.6 NE 13 20 7 11 1021.6 1021.5 0.0
25/01:30pm 20.5 16.5 6.5 40 7.1 NE 17 22 9 12 1022.1 1022.0 0.0
25/01:00pm 21.4 17.4 6.5 38 7.6 NNE 17 24 9 13 1022.5 1022.4 0.0
25/12:30pm 21.5 18.1 7.7 41 7.2 NNE 15 24 8 13 1023.1 1023.0 0.0
25/12:00pm 19.7 16.5 6.8 43 6.5 NNE 13 20 7 11 1023.7 1023.6 0.0
25/11:30am 20.0 16.9 7.4 44 6.5 NE 13 24 7 13 1024.1 1024.0 0.0
25/11:00am 20.0 16.4 6.7 42 6.7 NE 15 22 8 12 1024.6 1024.5 0.0
25/10:30am 18.5 15.1 7.6 49 5.6 ENE 15 26 8 14 1025.1 1025.0 0.0
25/10:00am 18.5 14.5 6.7 46 5.9 E 17 32 9 17 1025.3 1025.2 0.0
25/09:30am 17.1 12.7 6.6 50 5.2 E 19 28 10 15 1025.6 1025.5 0.0
25/09:00am 16.4 12.1 7.1 54 4.6 E 19 28 10 15 1025.6 1025.5 0.0
25/08:30am 15.6 11.3 6.9 56 4.3 E 19 30 10 16 1025.6 1025.5 0.0
25/08:00am 14.9 11.0 7.2 60 3.8 E 17 26 9 14 1025.6 1025.5 0.0
25/07:30am 13.4 9.0 6.5 63 3.3 E 19 30 10 16 1025.4 1025.3 0.0
25/07:00am 12.1 8.1 6.6 69 2.6 E 17 26 9 14 1025.2 1025.1 0.0
25/06:30am 11.4 8.1 6.5 72 2.3 E 13 20 7 11 1024.8 1024.7 0.0
25/06:00am 10.8 7.5 6.2 73 2.2 E 13 20 7 11 1024.5 1024.4 0.0
25/05:30am 10.8 7.1 6.2 73 2.2 E 15 26 8 14 1024.4 1024.3 0.0
25/05:00am 10.8 7.1 6.2 73 2.2 E 15 20 8 11 1024.1 1024.0 0.0
25/04:30am 10.8 7.0 6.0 72 2.3 E 15 22 8 12 1024.0 1023.9 0.0
25/04:00am 10.9 7.5 5.9 71 2.3 E 13 24 7 13 1024.0 1023.9 0.0
25/03:30am 11.3 7.5 6.0 70 2.5 E 15 26 8 14 1024.0 1023.9 0.0
25/03:00am 11.7 7.6 6.0 68 2.7 E 17 30 9 16 1024.0 1023.9 0.0
25/02:30am 11.8 7.3 5.9 67 2.8 E 19 30 10 16 1023.9 1023.8 0.0
25/02:00am 11.8 7.6 5.7 66 2.9 E 17 26 9 14 1023.9 1023.8 0.0
25/01:30am 12.1 7.6 5.9 66 2.9 E 19 26 10 14 1024.2 1024.1 0.0
25/01:00am 12.2 7.7 6.0 66 2.9 E 19 26 10 14 1024.2 1024.1 0.0
25/12:30am 12.4 7.7 6.0 65 3.0 E 20 32 11 17 1024.2 1024.1 0.0
25/12:00am 12.8 8.1 5.9 63 3.3 E 20 32 11 17 1024.2 1024.1 0.0
 
Date/Time
EST
Temp
°C
App
Temp
°C
Dew
Point
°C
Rel
Hum
%
Delta-T
°C
Wind Press
QNH
hPa
Press
MSL
hPa
Rain since
9am
mm
Dir  Spd
km/h
Gust
km/h
Spd
kts
Gust
kts
24/11:30pm 13.4 7.5 5.8 60 3.6 E 26 41 14 22 1024.1 1024.0 0.0
24/11:00pm 13.6 9.4 5.7 59 3.8 E 17 26 9 14 1024.1 1024.0 0.0
24/10:30pm 13.7 9.5 5.6 58 3.9 E 17 22 9 12 1024.0 1023.9 0.0
24/10:00pm 13.9 9.6 5.3 56 4.1 E 17 30 9 16 1024.1 1024.0 0.0
24/09:30pm 14.3 9.6 5.1 54 4.4 E 19 32 10 17 1024.0 1023.9 0.0
24/09:00pm 15.2 10.9 5.4 52 4.7 E 17 32 9 17 1023.9 1023.8 0.0
24/08:30pm 15.8 11.0 5.4 50 5.0 E 20 37 11 20 1023.7 1023.6 0.0
24/08:00pm 16.6 11.9 5.3 47 5.4 E 19 30 10 16 1023.4 1023.3 0.0
24/07:30pm 17.3 13.0 5.3 45 5.8 E 17 28 9 15 1023.1 1023.0 0.0
24/07:00pm 18.1 13.4 5.3 43 6.2 E 19 30 10 16 1022.6 1022.6 0.0
24/06:30pm 19.1 14.7 4.8 39 7.0 E 17 28 9 15 1022.1 1022.0 0.0
24/06:00pm 20.4 15.9 4.4 35 7.8 ESE 17 26 9 14 1021.7 1021.6 0.0
24/05:30pm 21.6 17.8 3.8 31 8.7 ESE 13 17 7 9 1021.4 1021.3 0.0
24/05:00pm 22.3 18.2 4.4 31 8.8 ESE 15 24 8 13 1021.2 1021.1 0.0
24/04:30pm 22.8 18.4 4.8 31 9.0 SE 17 24 9 13 1021.1 1021.0 0.0
24/04:00pm 22.6 18.5 4.2 30 9.1 SE 15 24 8 13 1021.2 1021.1 0.0
24/03:30pm 23.4 19.9 3.4 27 9.8 ESE 11 19 6 10 1021.3 1021.2 0.0
24/03:00pm 23.2 20.0 5.2 31 9.1 E 11 19 6 10 1021.6 1021.5 0.0
24/02:30pm 24.0 21.1 4.9 29 9.7 E 9 20 5 11 1021.9 1021.8 0.0
24/02:00pm 22.5 19.4 5.4 33 8.6 ESE 11 19 6 10 1022.4 1022.3 0.0
24/01:30pm 21.7 18.2 5.6 35 8.1 ESE 13 20 7 11 1022.8 1022.8 0.0
24/01:00pm 23.2 20.0 6.9 35 8.5 ENE 13 22 7 12 1023.3 1023.2 0.0
24/12:30pm 21.9 18.9 6.2 36 8.0 ENE 11 20 6 11 1023.8 1023.7 0.0
24/12:00pm 22.0 18.4 6.7 37 7.9 NE 15 26 8 14 1024.3 1024.2 0.0
24/11:30am 21.3 17.0 6.8 39 7.5 NE 19 30 10 16 1024.7 1024.6 0.0
24/11:00am 21.2 17.4 7.4 41 7.1 E 17 28 9 15 1025.2 1025.1 0.0
24/10:30am 20.3 16.5 7.7 44 6.6 E 17 30 9 16 1025.5 1025.4 0.0
24/10:00am 19.6 15.3 8.0 47 6.0 E 20 30 11 16 1025.8 1025.7 0.0
24/09:30am 18.4 13.6 7.5 49 5.6 E 22 32 12 17 1026.0 1025.9 0.0
24/09:00am 17.7 13.4 7.7 52 5.1 E 20 35 11 19 1026.0 1025.9 0.0
24/08:30am 17.4 13.4 8.3 55 4.7 E 19 33 10 18 1025.8 1025.7 0.0
24/08:00am 15.3 12.1 6.8 57 4.2 SE 13 20 7 11 1025.7 1025.6 0.0
24/07:30am 13.1 9.8 4.8 57 3.9 SE 11 19 6 10 1025.5 1025.4 0.0
24/07:00am 11.8 9.1 3.8 58 3.6 SSE 7 13 4 7 1025.2 1025.1 0.0
24/06:30am 10.6 7.9 2.7 58 3.4 SSE 6 9 3 5 1025.0 1024.9 0.0
24/06:00am 11.0 7.3 2.6 56 3.6 SSE 11 15 6 8 1024.6 1024.5 0.0
24/05:30am 11.4 7.8 3.2 57 3.6 SE 11 15 6 8 1024.1 1024.0 0.0
24/05:00am 11.6 8.4 2.9 55 3.8 SE 9 13 5 7 1024.0 1023.9 0.0
24/04:30am 12.1 8.8 2.6 52 4.2 SSE 9 15 5 8 1023.9 1023.8 0.0
24/04:00am 12.6 8.9 2.5 50 4.4 SSE 11 17 6 9 1023.7 1023.6 0.0
24/03:30am 13.0 9.7 2.3 48 4.7 SE 9 19 5 10 1023.5 1023.4 0.0
24/03:00am 13.7 9.6 2.0 45 5.1 SSE 13 20 7 11 1023.5 1023.4 0.0
24/02:30am 14.3 9.8 1.9 43 5.5 SSE 15 20 8 11 1023.8 1023.7 0.0
24/02:00am 14.6 10.8 1.5 41 5.7 SE 11 19 6 10 1024.1 1024.0 0.0
24/01:30am 15.3 10.3 1.4 39 6.1 SSE 17 24 9 13 1024.4 1024.3 0.0
24/01:00am 16.0 10.9 1.0 36 6.6 SSE 17 26 9 14 1024.3 1024.2 0.0
24/12:30am 16.0 11.8 -0.7 32 7.1 SSE 11 19 6 10 1024.3 1024.2 0.0
24/12:00am 16.7 11.8 -0.5 31 7.3 SSE 15 24 8 13 1024.2 1024.1 0.0
 
Date/Time
EST
Temp
°C
App
Temp
°C
Dew
Point
°C
Rel
Hum
%
Delta-T
°C
Wind Press
QNH
hPa
Press
MSL
hPa
Rain since
9am
mm
Dir  Spd
km/h
Gust
km/h
Spd
kts
Gust
kts
23/11:30pm 16.7 12.1 -0.9 30 7.5 S 13 20 7 11 1024.3 1024.2 0.0
23/11:00pm 17.0 12.4 -1.1 29 7.7 S 13 17 7 9 1024.3 1024.2 0.0

Other Formats:

Comma delimited format used in spreadsheet applications
http://www.bom.gov.au/fwo/IDN60801/IDN60801.95710.axf

JavaScript Object Notation format (JSON) in row-major order
http://www.bom.gov.au/fwo/IDN60801/IDN60801.95710.json